Hlavní strana
METAR-TAF:

METAR-TAF

Letiště :

Zadar, Chorvatsko

zeměpisná šířka: 44-06N, zeměpisná délka: 015-21E, výška: 82 m

Aktuální stav počasí

Zpráva byla vytvořena před 34 minutami, v 09:30 UTC
Jihojihovýchodní vítr 5 kt
Teplota 6°C
Vlhkost vzduchu 52%
Tlak 1025 hPa
Viditelnost 10 km a více
Žádná oblačnost pod 1500 m, nevyskytují se cumulonimby.

METAR: LDZD 190930Z 15005KT CAVOK 06/M03 Q1025 NOSIG

Čas: 11:04 (10:04 UTC)

Předpověď počasí

Zpráva byla vytvořena před 4 hodinami a 39 minutami, v 05:25 UTC
Předpověď platná od 19 v 06 UTC do 20 v 06 UTC
Východní vítr 5 kt
Viditelnost 10 km a více
Žádná oblačnost pod 1500 m, nevyskytují se cumulonimby.

TAF: LDZD 190525Z 1906/2006 09005KT CAVOK TX10/1913Z TNM05/1906Z

Stav a předpovědi počasí z více než 4 000 letišť (zprávy METAR a TAF).

Červené a žluté tečky na mapě představují dostupné meteorologické stanice.

Když kurzor umístíte na tečku, zobrazí se název stanice.

Pak kliknutím zobrazíte stav a předpověď počasí.

Chcete-li změnit mapu, kliknutím na zelené tlačítko se znaménkem +mapu přiblížíte, kliknutím na zelené tlačítko se znaménkem – mapu oddálíte a kliknutím na zelené šipky přejdete na sousední mapy.


METAR-TAF: